Time;durP1;ratioP1;P1;durP2;ratioP2;P2;SDS_P1;SDS_P2;PMS_P1;PMS_P2;Temp;Humidity;BMP_temperature;BMP_pressure;BME280_temperature;BME280_humidity;BME280_pressure;Samples;Min_cycle;Max_cycle;Signal;HPM_P1;HPM_P2
2022/06/15 00:01:20;;;;;;;5.80;3.60;;;13.60;99.90;;;;;;5047398;28;20045;-77
2022/06/15 00:03:48;;;;;;;5.90;3.75;;;13.60;99.90;;;;;;5048141;28;20072;-77
2022/06/15 00:06:19;;;;;;;4.50;3.88;;;13.60;99.90;;;;;;5055714;28;20068;-77
2022/06/15 00:08:51;;;;;;;5.07;3.53;;;13.60;99.90;;;;;;5049540;28;20052;-77
2022/06/15 00:11:20;;;;;;;;;;;13.60;99.90;;;;;;5049376;28;20057;-77
2022/06/15 00:13:48;;;;;;;7.93;3.83;;;13.60;99.90;;;;;;5053184;28;19932;-77
2022/06/15 00:16:15;;;;;;;4.88;3.40;;;13.60;99.90;;;;;;5050474;28;20077;-77
2022/06/15 00:18:44;;;;;;;6.85;3.90;;;13.60;99.90;;;;;;5048470;28;20136;-77
2022/06/15 00:21:12;;;;;;;6.88;3.42;;;13.60;99.90;;;;;;5047057;28;20521;-77
2022/06/15 00:23:41;;;;;;;4.25;3.30;;;13.60;99.90;;;;;;5051915;28;20091;-78
2022/06/15 00:26:09;;;;;;;4.05;3.20;;;13.60;99.90;;;;;;5049702;28;20049;-77
2022/06/15 00:28:36;;;;;;;4.75;3.47;;;13.60;99.90;;;;;;5049938;28;20132;-78
2022/06/15 00:31:04;;;;;;;5.55;4.13;;;13.60;99.90;;;;;;5045846;28;20037;-77
2022/06/15 00:33:32;;;;;;;3.42;2.95;;;13.60;99.90;;;;;;5069056;28;20473;-77
2022/06/15 00:36:02;;;;;;;4.28;3.03;;;13.60;99.90;;;;;;5084594;28;20041;-77
2022/06/15 00:38:33;;;;;;;4.63;3.42;;;13.60;99.90;;;;;;5059668;28;20138;-77
2022/06/15 00:41:03;;;;;;;4.05;3.30;;;13.60;99.90;;;;;;5046435;28;20170;-77
2022/06/15 00:43:35;;;;;;;4.53;3.65;;;13.70;99.90;;;;;;5049798;28;20692;-78
2022/06/15 00:46:13;;;;;;;4.95;3.95;;;13.70;99.90;;;;;;5053386;28;20053;-77
2022/06/15 00:48:42;;;;;;;4.07;3.60;;;13.70;99.90;;;;;;5051555;28;20064;-76
2022/06/15 00:51:09;;;;;;;5.70;4.57;;;13.70;99.90;;;;;;5051387;28;20136;-77
2022/06/15 00:53:38;;;;;;;7.05;4.15;;;13.70;99.90;;;;;;5051602;28;20076;-77
2022/06/15 00:56:09;;;;;;;4.32;3.80;;;13.70;99.90;;;;;;5052338;28;20456;-77
2022/06/15 00:58:38;;;;;;;4.20;3.90;;;13.70;99.90;;;;;;5052818;28;20045;-77
2022/06/15 01:01:06;;;;;;;4.53;3.95;;;13.70;99.90;;;;;;5032785;28;20413;-77
2022/06/15 01:03:34;;;;;;;4.20;3.80;;;13.70;99.90;;;;;;5047788;28;20045;-77
2022/06/15 01:06:09;;;;;;;4.32;3.92;;;13.70;99.90;;;;;;5051786;28;20041;-77
2022/06/15 01:08:58;;;;;;;6.82;4.28;;;13.70;99.90;;;;;;5053057;28;20053;-77
2022/06/15 01:11:46;;;;;;;5.78;4.38;;;13.70;99.90;;;;;;5048883;28;20054;-77
2022/06/15 01:14:38;;;;;;;5.95;4.13;;;13.70;99.90;;;;;;5051213;28;20459;-77
2022/06/15 01:17:28;;;;;;;4.78;4.30;;;13.70;99.90;;;;;;5049452;28;20048;-77
2022/06/15 01:20:25;;;;;;;4.97;4.50;;;13.70;99.90;;;;;;5048694;28;20055;-77
2022/06/15 01:23:12;;;;;;;5.50;4.72;;;13.70;99.90;;;;;;5048878;28;20696;-77
2022/06/15 01:25:42;;;;;;;6.38;4.18;;;13.70;99.90;;;;;;5051691;28;20048;-77
2022/06/15 01:28:33;;;;;;;6.55;4.72;;;13.70;99.90;;;;;;5067684;28;20053;-78
2022/06/15 01:31:11;;;;;;;5.15;4.72;;;13.70;99.90;;;;;;5050121;28;20560;-77
2022/06/15 01:33:50;;;;;;;9.13;4.90;;;13.70;99.90;;;;;;5051869;28;20061;-77
2022/06/15 01:36:25;;;;;;;7.03;5.38;;;13.80;99.90;;;;;;5049959;28;20203;-77
2022/06/15 01:39:00;;;;;;;9.85;5.30;;;13.80;99.90;;;;;;5051620;28;20542;-77
2022/06/15 01:41:33;;;;;;;6.68;4.97;;;13.70;99.90;;;;;;5053162;28;20048;-77
2022/06/15 01:44:08;;;;;;;5.82;5.22;;;13.70;99.90;;;;;;5053732;28;20044;-77
2022/06/15 01:46:50;;;;;;;7.00;5.30;;;13.70;99.90;;;;;;5046888;28;20129;-77
2022/06/15 01:49:22;;;;;;;6.68;5.20;;;13.70;99.90;;;;;;5048278;28;20152;-78
2022/06/15 01:51:51;;;;;;;5.38;4.88;;;13.80;99.90;;;;;;5046380;28;20118;-77
2022/06/15 01:54:23;;;;;;;5.95;5.22;;;13.80;99.90;;;;;;5056108;28;20041;-78
2022/06/15 01:56:56;;;;;;;7.13;5.93;;;13.80;99.90;;;;;;5050432;28;20052;-78
2022/06/15 01:59:28;;;;;;;7.80;5.55;;;13.90;99.90;;;;;;5049294;28;20053;-78
2022/06/15 02:02:04;;;;;;;7.60;5.63;;;13.90;99.90;;;;;;5052329;28;20143;-77
2022/06/15 02:04:38;;;;;;;8.27;6.63;;;13.80;99.90;;;;;;5050730;28;20050;-78
2022/06/15 02:07:23;;;;;;;9.48;6.10;;;13.80;99.90;;;;;;5041009;28;20072;-77
2022/06/15 02:09:57;;;;;;;8.73;6.55;;;13.80;99.90;;;;;;5051453;28;20061;-78
2022/06/15 02:12:31;;;;;;;13.55;7.60;;;13.80;99.90;;;;;;5058395;28;20049;-77
2022/06/15 02:14:59;;;;;;;7.82;6.55;;;13.80;99.90;;;;;;5052431;28;20532;-77
2022/06/15 02:17:31;;;;;;;7.55;6.70;;;13.90;99.90;;;;;;5052372;28;20089;-76
2022/06/15 02:20:04;;;;;;;8.10;6.57;;;13.90;99.90;;;;;;5052434;28;20061;-77
2022/06/15 02:22:36;;;;;;;7.63;6.47;;;13.90;99.90;;;;;;5055763;28;20061;-77
2022/06/15 02:25:09;;;;;;;7.15;6.47;;;14.00;99.90;;;;;;5032188;28;20128;-78
2022/06/15 02:27:41;;;;;;;7.63;5.85;;;14.00;99.90;;;;;;5045506;28;20095;-78
2022/06/15 02:30:13;;;;;;;8.75;6.28;;;14.00;99.90;;;;;;5060905;28;20083;-77
2022/06/15 02:32:46;;;;;;;7.72;5.80;;;14.00;99.90;;;;;;5047425;28;20061;-77
2022/06/15 02:35:14;;;;;;;6.88;6.22;;;14.10;99.90;;;;;;5036168;28;20048;-76
2022/06/15 02:37:42;;;;;;;6.38;5.35;;;14.10;99.90;;;;;;5049731;28;20049;-77
2022/06/15 02:40:14;;;;;;;10.43;5.93;;;14.00;99.90;;;;;;5052315;28;20527;-77
2022/06/15 02:42:44;;;;;;;6.20;5.65;;;14.10;99.90;;;;;;5047030;28;20049;-77
2022/06/15 02:45:20;;;;;;;5.45;4.90;;;14.10;99.90;;;;;;5045530;28;20045;-77
2022/06/15 02:47:53;;;;;;;6.68;6.05;;;14.10;99.90;;;;;;5057686;28;20068;-77
2022/06/15 02:50:23;;;;;;;8.38;5.25;;;14.10;99.90;;;;;;5058808;28;20049;-77
2022/06/15 02:52:55;;;;;;;7.13;5.85;;;14.10;99.90;;;;;;5051863;28;20063;-77
2022/06/15 02:55:25;;;;;;;5.85;5.28;;;14.10;99.90;;;;;;5030456;28;20048;-77
2022/06/15 02:58:01;;;;;;;6.53;5.47;;;14.10;99.90;;;;;;5057935;28;20049;-77
2022/06/15 03:00:36;;;;;;;8.45;6.55;;;14.10;99.90;;;;;;5048358;28;20151;-77
2022/06/15 03:03:07;;;;;;;9.13;5.40;;;14.10;99.90;;;;;;5050866;28;20459;-77
2022/06/15 03:05:35;;;;;;;5.80;5.05;;;14.10;99.90;;;;;;5054144;28;20048;-77
2022/06/15 03:08:03;;;;;;;6.65;5.63;;;14.20;99.90;;;;;;5065826;28;20060;-77
2022/06/15 03:10:31;;;;;;;5.90;5.32;;;14.20;99.90;;;;;;5050945;28;20076;-77
2022/06/15 03:12:59;;;;;;;6.25;5.60;;;14.20;99.90;;;;;;5047953;28;20037;-77
2022/06/15 03:15:29;;;;;;;11.93;5.95;;;14.30;99.90;;;;;;5060758;28;20408;-77
2022/06/15 03:17:57;;;;;;;5.88;5.30;;;14.30;99.90;;;;;;5052890;28;20428;-77
2022/06/15 03:20:26;;;;;;;6.38;5.35;;;14.30;99.90;;;;;;5049908;28;20566;-77
2022/06/15 03:22:55;;;;;;;7.55;6.40;;;14.30;99.90;;;;;;5048573;28;20084;-77
2022/06/15 03:25:26;;;;;;;8.90;5.38;;;14.40;99.90;;;;;;5031087;28;20072;-77
2022/06/15 03:27:57;;;;;;;8.65;6.40;;;14.40;99.90;;;;;;5046912;28;20079;-77
2022/06/15 03:30:28;;;;;;;11.32;6.30;;;14.40;99.90;;;;;;5049865;28;20068;-77
2022/06/15 03:33:02;;;;;;;7.93;6.40;;;14.40;99.90;;;;;;5055589;28;20051;-77
2022/06/15 03:35:35;;;;;;;10.82;6.40;;;14.40;99.90;;;;;;5067948;28;20052;-76
2022/06/15 03:38:11;;;;;;;10.68;6.40;;;14.40;99.90;;;;;;5034223;28;20576;-77
2022/06/15 03:40:46;;;;;;;7.47;6.78;;;14.50;99.90;;;;;;5042739;28;20045;-77
2022/06/15 03:43:14;;;;;;;8.43;6.35;;;14.40;99.90;;;;;;5064907;28;20053;-77
2022/06/15 03:45:43;;;;;;;8.05;6.82;;;14.40;99.90;;;;;;5058140;28;20428;-78
2022/06/15 03:48:12;;;;;;;8.77;7.30;;;14.40;99.90;;;;;;5032431;28;20137;-77
2022/06/15 03:50:45;;;;;;;9.63;7.60;;;14.50;99.90;;;;;;5051204;28;20449;-77
2022/06/15 03:53:14;;;;;;;12.70;7.03;;;14.50;99.90;;;;;;5068578;28;20051;-78
2022/06/15 03:55:44;;;;;;;7.15;6.50;;;14.60;99.90;;;;;;5044770;28;20442;-78
2022/06/15 03:58:18;;;;;;;10.48;7.25;;;14.60;99.90;;;;;;5048771;28;20045;-77
2022/06/15 04:00:49;;;;;;;12.83;7.37;;;14.70;99.90;;;;;;5050935;28;20121;-77
2022/06/15 04:03:19;;;;;;;8.68;7.78;;;14.70;99.90;;;;;;5048141;28;20091;-76
2022/06/15 04:06:08;;;;;;;9.15;8.15;;;14.70;99.90;;;;;;5031829;28;20111;-76
2022/06/15 04:08:39;;;;;;;13.98;8.63;;;14.70;99.90;;;;;;5048779;28;20045;-77
2022/06/15 04:14:19;;;;;;;9.50;8.48;;;14.80;99.90;;;;;;5043452;28;20155;-77
2022/06/15 04:16:54;;;;;;;9.68;8.68;;;14.80;99.90;;;;;;5048580;28;20079;-76
2022/06/15 04:19:27;;;;;;;10.48;9.43;;;14.80;99.90;;;;;;5062775;28;20577;-77
2022/06/15 04:21:56;;;;;;;16.95;11.73;;;14.70;99.90;;;;;;5060200;28;20052;-77
2022/06/15 04:24:29;;;;;;;19.42;13.20;;;14.70;99.90;;;;;;5041300;28;20083;-77
2022/06/15 04:27:00;;;;;;;20.80;12.65;;;14.70;99.90;;;;;;5045375;28;20045;-76
2022/06/15 04:29:28;;;;;;;18.23;12.25;;;14.70;99.90;;;;;;5047914;28;20136;-78
2022/06/15 04:31:57;;;;;;;21.05;11.75;;;14.60;99.90;;;;;;5029370;28;20060;-77
2022/06/15 04:34:28;;;;;;;16.80;10.63;;;14.60;99.90;;;;;;5029026;28;20389;-77
2022/06/15 04:36:57;;;;;;;13.88;9.98;;;14.70;99.90;;;;;;5044189;28;20098;-78
2022/06/15 04:39:26;;;;;;;15.20;9.40;;;14.70;99.90;;;;;;5048995;28;20056;-78
2022/06/15 04:41:54;;;;;;;15.68;9.93;;;14.80;99.90;;;;;;5043104;28;20050;-77
2022/06/15 04:44:22;;;;;;;11.93;9.02;;;14.80;99.90;;;;;;5029037;28;20049;-78
2022/06/15 04:46:54;;;;;;;16.90;9.35;;;14.80;99.90;;;;;;5067106;28;20060;-77
2022/06/15 04:49:24;;;;;;;15.88;9.48;;;14.80;99.90;;;;;;5058844;28;20055;-78
2022/06/15 04:51:54;;;;;;;12.50;8.90;;;14.70;99.90;;;;;;5047051;28;20061;-78
2022/06/15 04:54:24;;;;;;;11.93;8.82;;;14.80;99.90;;;;;;5053634;28;20047;-78
2022/06/15 04:56:55;;;;;;;11.60;8.68;;;14.80;99.90;;;;;;5068603;28;20048;-78
2022/06/15 04:59:23;;;;;;;11.82;8.13;;;14.80;99.90;;;;;;5061893;28;20048;-77
2022/06/15 05:01:52;;;;;;;10.32;9.02;;;14.80;99.90;;;;;;5044937;28;20053;-77
2022/06/15 05:04:21;;;;;;;14.77;8.52;;;14.80;99.90;;;;;;5038035;28;20143;-77
2022/06/15 05:06:48;;;;;;;12.68;9.65;;;14.80;99.90;;;;;;5051667;28;20041;-77
2022/06/15 05:09:17;;;;;;;9.80;7.97;;;14.80;99.90;;;;;;5056868;28;20103;-74
2022/06/15 05:11:49;;;;;;;10.18;8.27;;;14.80;99.90;;;;;;5048266;28;20586;-75
2022/06/15 05:14:19;;;;;;;10.77;8.70;;;14.80;99.90;;;;;;5050779;28;20049;-76
2022/06/15 05:16:50;;;;;;;13.37;8.87;;;14.90;99.90;;;;;;5047735;28;20049;-76
2022/06/15 05:19:23;;;;;;;9.52;8.63;;;14.90;99.90;;;;;;5033935;28;20252;-74
2022/06/15 05:21:52;;;;;;;8.77;7.88;;;15.00;99.90;;;;;;5026361;28;20056;-74
2022/06/15 05:24:23;;;;;;;10.50;7.30;;;15.10;99.90;;;;;;5045645;28;20436;-76
2022/06/15 05:26:59;;;;;;;10.55;7.75;;;15.20;99.90;;;;;;5034419;28;20539;-74
2022/06/15 05:29:27;;;;;;;9.73;7.80;;;15.30;99.90;;;;;;5042101;28;20067;-80
2022/06/15 05:32:04;;;;;;;12.00;8.63;;;15.40;99.90;;;;;;5068387;28;20056;-78
2022/06/15 05:34:31;;;;;;;12.20;8.23;;;15.40;99.90;;;;;;5052010;28;20053;-74
2022/06/15 05:36:59;;;;;;;14.32;9.15;;;15.50;99.90;;;;;;5043349;28;20448;-75
2022/06/15 05:39:26;;;;;;;7.88;7.07;;;15.60;99.90;;;;;;5053870;28;20052;-77
2022/06/15 05:41:54;;;;;;;10.40;7.90;;;15.70;99.90;;;;;;5052310;28;20048;-77
2022/06/15 05:44:33;;;;;;;8.48;7.55;;;15.80;99.90;;;;;;5019110;28;20075;-76
2022/06/15 05:47:06;;;;;;;7.60;6.85;;;15.90;99.90;;;;;;5045202;28;20060;-76
2022/06/15 05:49:42;;;;;;;7.47;6.70;;;16.10;99.90;;;;;;5045887;28;20045;-77
2022/06/15 05:52:12;;;;;;;6.95;6.30;;;16.20;99.90;;;;;;5033763;28;20047;-77
2022/06/15 05:54:49;;;;;;;8.13;7.32;;;16.30;99.90;;;;;;5049157;28;20098;-80
2022/06/15 05:57:19;;;;;;;8.18;7.38;;;16.20;99.90;;;;;;5064149;28;20818;-80
2022/06/15 05:59:53;;;;;;;7.75;6.95;;;16.10;99.90;;;;;;5047868;28;20057;-78
2022/06/15 06:02:23;;;;;;;8.30;6.70;;;16.00;99.90;;;;;;5042371;28;20122;-78
2022/06/15 06:04:51;;;;;;;8.57;7.60;;;15.80;99.90;;;;;;5039386;28;20045;-77
2022/06/15 06:07:19;;;;;;;12.27;7.55;;;15.80;99.90;;;;;;5046804;28;20132;-78
2022/06/15 06:09:47;;;;;;;10.13;7.72;;;15.80;99.90;;;;;;5057560;28;20041;-79
2022/06/15 06:12:18;;;;;;;7.78;7.07;;;15.80;99.90;;;;;;5065746;28;20060;-78
2022/06/15 06:14:50;;;;;;;8.15;7.32;;;15.80;99.90;;;;;;5049841;28;20061;-79
2022/06/15 06:17:27;;;;;;;7.68;6.93;;;15.80;99.90;;;;;;5052708;28;20069;-78
2022/06/15 06:19:55;;;;;;;13.75;8.18;;;15.90;99.90;;;;;;5040416;28;20056;-78
2022/06/15 06:22:22;;;;;;;8.40;7.47;;;15.90;99.90;;;;;;5036416;28;20049;-78
2022/06/15 06:24:50;;;;;;;8.05;7.13;;;15.90;99.90;;;;;;5047577;28;20139;-78
2022/06/15 06:27:18;;;;;;;10.05;7.82;;;15.90;99.90;;;;;;5040651;28;20140;-78
2022/06/15 06:29:45;;;;;;;8.48;7.70;;;15.90;99.90;;;;;;5041804;28;20144;-77
2022/06/15 06:32:16;;;;;;;11.10;7.53;;;15.90;99.90;;;;;;5039646;28;20051;-78
2022/06/15 06:34:44;;;;;;;7.88;7.15;;;15.80;99.90;;;;;;5046581;28;20049;-78
2022/06/15 06:37:14;;;;;;;9.63;7.50;;;15.90;99.90;;;;;;5039230;28;20046;-78
2022/06/15 06:39:42;;;;;;;7.57;6.75;;;16.00;99.90;;;;;;5037633;28;20487;-77
2022/06/15 06:42:12;;;;;;;10.27;7.30;;;16.00;99.90;;;;;;5040665;28;20499;-77
2022/06/15 06:44:40;;;;;;;11.40;7.72;;;16.00;99.90;;;;;;5045930;28;20056;-77
2022/06/15 06:47:08;;;;;;;9.40;7.25;;;16.10;99.90;;;;;;5040380;28;20132;-76
2022/06/15 06:49:37;;;;;;;9.50;8.35;;;16.20;99.90;;;;;;5034967;28;20370;-80
2022/06/15 06:52:05;;;;;;;9.18;8.20;;;16.20;99.90;;;;;;5040533;28;20041;-79
2022/06/15 06:54:33;;;;;;;9.88;8.93;;;16.30;99.90;;;;;;5038142;28;20045;-80
2022/06/15 06:57:04;;;;;;;10.48;8.80;;;16.20;99.90;;;;;;5046306;28;20088;-80
2022/06/15 06:59:46;;;;;;;10.98;9.05;;;16.30;99.90;;;;;;5065430;28;20053;-82
2022/06/15 07:02:16;;;;;;;9.13;7.68;;;16.30;99.90;;;;;;5063447;28;20523;-80
2022/06/15 07:04:46;;;;;;;11.88;8.50;;;16.30;99.90;;;;;;5045763;28;20059;-80
2022/06/15 07:07:14;;;;;;;15.20;9.45;;;16.30;99.90;;;;;;5039802;28;20091;-81
2022/06/15 07:09:42;;;;;;;9.80;8.38;;;16.30;99.90;;;;;;5042048;28;20041;-81
2022/06/15 07:12:11;;;;;;;11.55;8.65;;;16.30;99.90;;;;;;5044959;28;20053;-80
2022/06/15 07:14:38;;;;;;;12.15;8.95;;;16.30;99.90;;;;;;5048644;28;20057;-80
2022/06/15 07:17:06;;;;;;;16.55;9.57;;;16.30;99.90;;;;;;5042393;28;20060;-80
2022/06/15 07:19:33;;;;;;;11.55;8.68;;;16.40;99.90;;;;;;5049061;28;20099;-80
2022/06/15 07:22:02;;;;;;;14.15;8.10;;;16.50;99.90;;;;;;5049044;28;20056;-81
2022/06/15 07:24:30;;;;;;;8.65;7.82;;;16.60;99.90;;;;;;5051278;28;20053;-80
2022/06/15 07:26:57;;;;;;;10.30;8.25;;;16.70;99.90;;;;;;5050827;28;20059;-80
2022/06/15 07:29:25;;;;;;;12.25;7.60;;;16.60;99.90;;;;;;5051225;28;20057;-80
2022/06/15 07:31:56;;;;;;;7.30;6.38;;;16.60;99.90;;;;;;5066577;28;20044;-84
2022/06/15 07:34:25;;;;;;;10.63;6.53;;;16.60;99.90;;;;;;5051613;28;20049;-82
2022/06/15 07:36:52;;;;;;;10.07;6.72;;;16.50;99.90;;;;;;5042746;28;20041;-81
2022/06/15 07:39:27;;;;;;;7.88;5.72;;;16.50;99.90;;;;;;5037922;28;20048;-80
2022/06/15 07:41:56;;;;;;;10.05;6.63;;;16.60;99.90;;;;;;5044096;28;20061;-79
2022/06/15 07:44:25;;;;;;;8.15;5.75;;;16.50;99.90;;;;;;5050788;28;20114;-79
2022/06/15 07:49:54;;;;;;;9.18;5.50;;;16.60;99.90;;;;;;5066518;28;20045;-80
2022/06/15 07:49:57;;;;;;;7.05;4.70;;;16.50;99.90;;;;;;5050021;28;20053;-80
2022/06/15 07:52:27;;;;;;;7.65;4.32;;;16.40;99.90;;;;;;5054613;28;20048;-80
2022/06/15 07:54:58;;;;;;;6.05;3.65;;;16.40;99.90;;;;;;5054558;28;20078;-80
2022/06/15 07:57:26;;;;;;;5.38;3.40;;;16.30;99.90;;;;;;5070803;28;20053;-81
2022/06/15 07:59:53;;;;;;;5.05;3.20;;;16.20;99.90;;;;;;5059801;28;20505;-78
2022/06/15 08:02:22;;;;;;;8.85;2.97;;;16.10;99.90;;;;;;5049950;28;20049;-78
2022/06/15 08:04:50;;;;;;;4.82;2.83;;;16.10;99.90;;;;;;5048626;28;20420;-77
2022/06/15 08:07:19;;;;;;;4.55;2.83;;;16.00;99.90;;;;;;5051217;28;20087;-77
2022/06/15 08:09:46;;;;;;;7.50;3.00;;;16.10;99.90;;;;;;5070239;28;20048;-79
2022/06/15 08:12:18;;;;;;;4.25;2.60;;;16.10;99.90;;;;;;5052139;28;20095;-78
2022/06/15 08:14:49;;;;;;;4.37;2.97;;;16.10;99.90;;;;;;5045980;28;20416;-78
2022/06/15 08:17:20;;;;;;;4.45;3.30;;;16.10;99.90;;;;;;5031251;28;20056;-78
2022/06/15 08:19:52;;;;;;;4.85;2.92;;;16.20;99.90;;;;;;5034222;28;20048;-80
2022/06/15 08:22:20;;;;;;;5.80;3.17;;;16.20;99.90;;;;;;5050271;28;20139;-82
2022/06/15 08:24:49;;;;;;;8.50;3.53;;;16.20;99.90;;;;;;5055017;28;20036;-82
2022/06/15 08:27:20;;;;;;;5.25;3.80;;;16.20;99.90;;;;;;5050514;28;20143;-81
2022/06/15 08:29:50;;;;;;;5.80;3.25;;;16.20;99.90;;;;;;5049225;28;20053;-85
2022/06/15 08:32:19;;;;;;;5.22;3.33;;;16.10;99.90;;;;;;5023501;28;20103;-85
2022/06/15 08:34:47;;;;;;;6.68;3.70;;;16.20;99.90;;;;;;5048022;28;20049;-83
2022/06/15 08:37:17;;;;;;;8.10;3.78;;;16.30;99.90;;;;;;5052470;28;20045;-79
2022/06/15 08:39:45;;;;;;;7.55;3.40;;;16.20;99.90;;;;;;5050051;28;20037;-80
2022/06/15 08:42:23;;;;;;;9.27;3.58;;;16.30;99.90;;;;;;5049567;28;20099;-83
2022/06/15 08:45:05;;;;;;;7.00;3.30;;;16.30;99.90;;;;;;5050254;28;20053;-83
2022/06/15 08:47:45;;;;;;;7.38;3.90;;;16.20;99.90;;;;;;5049501;28;20055;-82
2022/06/15 08:50:21;;;;;;;12.40;3.92;;;16.20;99.90;;;;;;5039987;28;20052;-81
2022/06/15 08:52:54;;;;;;;7.90;3.80;;;16.30;99.90;;;;;;5032610;28;20053;-80
2022/06/15 08:55:27;;;;;;;7.07;3.45;;;16.40;99.90;;;;;;5037312;28;20060;-79
2022/06/15 08:57:58;;;;;;;7.60;3.53;;;16.50;99.90;;;;;;5053548;28;20049;-79
2022/06/15 09:00:29;;;;;;;6.72;3.30;;;16.70;99.90;;;;;;5059124;28;20057;-79
2022/06/15 09:03:14;;;;;;;4.72;3.78;;;16.80;99.90;;;;;;5045192;28;20107;-79
2022/06/15 09:05:49;;;;;;;3.80;3.38;;;16.90;99.90;;;;;;5054720;28;20049;-79
2022/06/15 09:08:49;;;;;;;8.52;4.15;;;17.10;99.90;;;;;;5051130;28;20056;-78
2022/06/15 09:11:25;;;;;;;8.13;3.92;;;17.40;99.90;;;;;;5052145;28;20143;-79
2022/06/15 09:14:16;;;;;;;4.53;3.50;;;17.70;99.90;;;;;;5051678;28;20056;-80
2022/06/15 09:16:51;;;;;;;5.82;3.42;;;18.00;99.90;;;;;;5052347;28;20057;-77
2022/06/15 09:19:23;;;;;;;3.17;2.83;;;18.40;99.90;;;;;;5042151;28;20141;-79
2022/06/15 09:21:58;;;;;;;6.90;3.42;;;18.80;99.90;;;;;;5043232;28;20148;-79
2022/06/15 09:24:37;;;;;;;4.38;3.72;;;19.10;99.90;;;;;;5033278;28;20057;-79
2022/06/15 09:27:12;;;;;;;6.10;3.70;;;19.30;99.90;;;;;;5056010;28;20451;-80
2022/06/15 09:29:45;;;;;;;9.60;4.03;;;19.30;99.90;;;;;;5038143;28;20049;-80
2022/06/15 09:32:18;;;;;;;6.90;4.38;;;19.30;99.90;;;;;;5042933;28;20060;-80
2022/06/15 09:34:52;;;;;;;4.82;4.40;;;19.20;99.90;;;;;;5040368;28;20085;-80
2022/06/15 09:37:25;;;;;;;8.15;4.05;;;19.20;99.90;;;;;;5045164;28;20057;-83
2022/06/15 09:39:52;;;;;;;8.35;4.45;;;19.20;99.90;;;;;;5023723;28;20091;-80
2022/06/15 09:42:26;;;;;;;6.35;3.90;;;19.10;99.90;;;;;;5038048;28;20044;-81
2022/06/15 09:45:03;;;;;;;5.65;4.40;;;19.00;99.90;;;;;;5062858;28;20056;-80
2022/06/15 09:47:41;;;;;;;8.43;4.10;;;19.00;99.90;;;;;;5033721;28;20045;-79
2022/06/15 09:50:21;;;;;;;4.68;4.05;;;19.00;99.90;;;;;;5036161;28;20102;-81
2022/06/15 09:53:00;;;;;;;5.63;3.42;;;19.10;99.90;;;;;;5051772;28;20080;-82
2022/06/15 09:55:36;;;;;;;10.95;5.10;;;19.20;99.90;;;;;;5050320;28;20045;-81
2022/06/15 09:58:05;;;;;;;3.38;3.08;;;19.30;99.90;;;;;;5038553;28;20045;-82
2022/06/15 10:00:36;;;;;;;4.35;2.67;;;19.30;99.90;;;;;;5050215;28;20056;-83
2022/06/15 10:03:13;;;;;;;3.95;3.30;;;19.40;99.90;;;;;;5046398;28;20548;-81
2022/06/15 10:05:44;;;;;;;3.60;2.75;;;19.40;99.90;;;;;;5050586;28;20484;-82
2022/06/15 10:08:14;;;;;;;5.25;3.95;;;19.60;99.90;;;;;;5038784;28;20041;-81
2022/06/15 10:10:45;;;;;;;5.28;3.22;;;19.90;99.90;;;;;;5047592;28;20056;-81
2022/06/15 10:13:29;;;;;;;5.13;3.17;;;20.60;99.90;;;;;;5052656;28;20076;-80
2022/06/15 10:16:00;;;;;;;3.15;2.95;;;21.40;99.90;;;;;;5032194;28;20066;-80
2022/06/15 10:18:33;;;;;;;3.83;2.92;;;21.70;99.90;;;;;;5032667;28;20057;-81
2022/06/15 10:21:04;;;;;;;;;;;23.00;99.90;;;;;;5049540;28;20519;-80
2022/06/15 10:23:50;;;;;;;10.10;2.88;;;24.80;99.20;;;;;;5051238;28;20363;-82
2022/06/15 10:26:32;;;;;;;5.43;2.85;;;26.30;93.10;;;;;;5050634;28;20411;-82
2022/06/15 10:29:06;;;;;;;2.97;2.67;;;27.00;83.10;;;;;;5050778;28;20049;-82
2022/06/15 10:31:36;;;;;;;4.45;2.80;;;26.40;84.60;;;;;;5045991;28;20045;-82
2022/06/15 10:34:21;;;;;;;4.82;3.22;;;25.50;87.70;;;;;;5039765;28;20053;-82
2022/06/15 10:36:54;;;;;;;8.32;3.35;;;25.00;88.20;;;;;;5043837;28;20171;-81
2022/06/15 10:39:25;;;;;;;7.78;3.03;;;25.40;91.20;;;;;;5046426;28;20148;-79
2022/06/15 10:41:58;;;;;;;6.38;4.22;;;26.70;88.60;;;;;;5044261;28;20057;-78
2022/06/15 10:44:30;;;;;;;6.75;3.58;;;28.20;76.90;;;;;;5040110;28;20057;-81
2022/06/15 10:47:02;;;;;;;6.40;3.72;;;29.60;73.40;;;;;;5030186;28;20102;-81
2022/06/15 10:49:33;;;;;;;4.97;4.00;;;30.90;65.60;;;;;;5030560;28;20062;-82
2022/06/15 10:52:01;;;;;;;8.95;5.97;;;31.90;58.90;;;;;;5040802;28;20477;-81
2022/06/15 11:02:06;;;;;;;5.80;4.90;;;31.10;60.00;;;;;;5051704;28;20461;-80
2022/06/15 11:03:12;;;;;;;6.95;5.70;;;32.30;58.00;;;;;;5049517;28;20052;-80
2022/06/15 11:05:40;;;;;;;7.30;5.60;;;31.90;57.70;;;;;;5047613;28;20107;-81
2022/06/15 11:08:16;;;;;;;8.57;4.88;;;31.30;59.40;;;;;;5051960;28;20053;-86
2022/06/15 11:10:47;;;;;;;9.38;5.57;;;30.20;60.80;;;;;;5049334;28;20071;-81
2022/06/15 11:13:30;;;;;;;12.50;6.10;;;28.70;60.40;;;;;;5037112;28;20061;-84
2022/06/15 11:18:59;;;;;;;12.98;6.90;;;26.60;69.10;;;;;;5041220;28;20087;-83
2022/06/15 11:21:30;;;;;;;11.45;6.93;;;25.60;70.80;;;;;;5044302;28;20143;-82
2022/06/15 11:24:03;;;;;;;7.57;6.88;;;24.90;75.10;;;;;;5049603;28;20339;-82
2022/06/15 11:26:54;;;;;;;7.15;6.45;;;25.30;77.90;;;;;;5050936;28;20049;-84
2022/06/15 11:29:38;;;;;;;7.63;7.03;;;26.10;73.80;;;;;;5045897;28;20462;-83
2022/06/15 11:32:19;;;;;;;8.43;6.53;;;25.80;73.50;;;;;;5045735;28;20057;-82
2022/06/15 11:34:56;;;;;;;7.95;7.03;;;25.10;74.90;;;;;;5050974;28;20072;-83
2022/06/15 11:37:27;;;;;;;9.10;7.40;;;24.40;76.50;;;;;;5066109;28;20099;-80
2022/06/15 11:40:01;;;;;;;7.87;7.07;;;23.70;80.10;;;;;;5044936;28;20056;-82
2022/06/15 11:42:30;;;;;;;11.18;7.07;;;23.40;84.10;;;;;;5049908;28;20080;-80
2022/06/15 11:44:58;;;;;;;6.70;6.07;;;23.60;90.90;;;;;;5051079;28;20056;-78
2022/06/15 11:47:34;;;;;;;6.72;6.00;;;25.50;89.70;;;;;;5043384;28;20053;-78
2022/06/15 11:50:19;;;;;;;12.32;7.07;;;27.00;78.70;;;;;;5037756;28;20041;-78
2022/06/15 11:52:59;;;;;;;11.48;6.10;;;28.80;68.30;;;;;;5048848;28;20556;-78
2022/06/15 11:55:37;;;;;;;7.80;6.68;;;29.60;63.90;;;;;;5044023;28;20144;-78
2022/06/15 11:58:27;;;;;;;6.80;5.85;;;28.60;64.10;;;;;;5039605;28;20132;-78
2022/06/15 12:01:20;;;;;;;6.90;6.30;;;27.30;67.40;;;;;;5029271;28;20079;-79
2022/06/15 12:04:20;;;;;;;6.90;6.15;;;27.30;69.10;;;;;;5048507;28;20456;-79
2022/06/15 12:06:58;;;;;;;6.82;6.30;;;27.80;67.10;;;;;;5055448;28;20077;-77
2022/06/15 12:09:32;;;;;;;6.10;5.60;;;27.10;67.30;;;;;;5041228;28;20045;-78
2022/06/15 12:15:02;;;;;;;7.93;6.18;;;25.90;71.60;;;;;;5040990;28;20132;-79
2022/06/15 12:17:36;;;;;;;6.03;5.18;;;25.10;72.90;;;;;;5038977;28;20083;-79
2022/06/15 12:20:17;;;;;;;5.80;5.20;;;24.70;76.10;;;;;;5032029;28;20501;-81
2022/06/15 12:22:54;;;;;;;8.30;5.43;;;25.90;75.10;;;;;;5046508;28;20059;-77
2022/06/15 12:25:27;;;;;;;9.00;5.20;;;27.10;71.60;;;;;;5048234;28;20152;-80
2022/06/15 12:28:00;;;;;;;9.27;5.32;;;28.80;66.70;;;;;;5050157;28;20049;-79
2022/06/15 12:30:37;;;;;;;6.70;5.63;;;30.00;64.10;;;;;;5054194;28;20062;-78
2022/06/15 12:33:18;;;;;;;6.18;5.03;;;30.60;62.40;;;;;;5085344;28;20052;-78
2022/06/15 12:35:50;;;;;;;5.57;4.97;;;30.10;60.80;;;;;;5039487;28;20445;-78
2022/06/15 12:38:25;;;;;;;8.18;5.97;;;28.50;64.10;;;;;;5030582;28;20058;-77
2022/06/15 12:41:00;;;;;;;7.22;5.45;;;27.00;68.50;;;;;;5044758;28;20049;-77
2022/06/15 12:43:34;;;;;;;6.90;5.97;;;25.70;72.90;;;;;;5039383;28;20072;-78
2022/06/15 12:46:07;;;;;;;16.67;7.30;;;24.70;77.90;;;;;;5048501;28;20053;-77
2022/06/15 12:48:48;;;;;;;8.35;7.55;;;23.90;80.90;;;;;;5032919;28;20559;-79
2022/06/15 12:51:24;;;;;;;7.35;6.07;;;23.30;85.90;;;;;;5049672;28;20516;-80
2022/06/15 12:54:05;;;;;;;9.98;6.38;;;23.00;89.10;;;;;;5045098;28;20548;-79
2022/06/15 12:56:43;;;;;;;8.95;6.53;;;22.90;91.20;;;;;;5045290;28;20160;-78
2022/06/15 12:59:24;;;;;;;7.78;6.97;;;22.60;91.90;;;;;;5048083;28;20064;-78
2022/06/15 13:01:58;;;;;;;8.00;7.25;;;22.20;93.70;;;;;;5050407;28;20115;-77
2022/06/15 13:04:42;;;;;;;12.13;7.78;;;21.90;96.80;;;;;;5046768;28;20056;-78
2022/06/15 13:07:21;;;;;;;8.18;7.38;;;21.50;99.40;;;;;;5050411;28;20396;-78
2022/06/15 13:10:21;;;;;;;9.38;7.80;;;21.10;99.90;;;;;;5051975;28;20052;-79
2022/06/15 13:12:54;;;;;;;10.20;7.97;;;20.80;99.90;;;;;;5052446;28;20060;-78
2022/06/15 13:15:37;;;;;;;11.18;7.95;;;20.50;99.90;;;;;;5051608;28;20156;-80
2022/06/15 13:18:11;;;;;;;;;;;20.40;99.90;;;;;;5048240;28;20049;-79
2022/06/15 13:21:06;;;;;;;10.63;7.72;;;20.20;99.90;;;;;;5048575;28;20404;-79
2022/06/15 13:23:39;;;;;;;7.60;6.85;;;20.10;99.90;;;;;;5046350;28;20497;-77
2022/06/15 13:26:14;;;;;;;6.53;5.88;;;20.20;99.90;;;;;;5043527;28;20144;-78
2022/06/15 13:28:46;;;;;;;6.15;5.22;;;20.40;99.90;;;;;;5058469;28;20045;-79
2022/06/15 13:31:35;;;;;;;14.45;5.15;;;20.40;99.90;;;;;;5045285;28;20128;-80